KHVS/HVS METAR and TAF weather

Enter ICAO airport designator
Station Type Date Time Source
KHVS METAR 2021/06/24 04:55 UTC NOAA

KHVS 240455Z AUTO 00000KT 10SM FEW037 SCT044 BKN055 19/16 A3024 RMK AO2


Station Type Date Time Source
KHVS Decoded METAR 2021/06/24 04:55 UTC NOAA

Station name not available
Jun 24, 2021 - 12:55 AM EDT / 2021.06.24 0455 UTC
Wind: Calm:0
Visibility: 10 mile(s):0
Sky conditions: mostly cloudy
Temperature: 66 F (19 C)
Dew Point: 60 F (16 C)
Relative Humidity: 82%
Pressure (altimeter): 30.24 in. Hg (1024 hPa)
ob: KHVS 240455Z AUTO 00000KT 10SM FEW037 SCT044 BKN055 19/16 A3024 RMK AO2
cycle: 5

Station Type Date Time Source
KHVS TAF UTC NOAA

Error!

Example: see airport list